sensor_id;sensor_type;location;lat;lon;timestamp;P1;durP1;ratioP1;P2;durP2;ratioP2
14165;SDS011;7162;52.422;13.754;2023-02-05T00:00:14;5.63;;;3.07;;
14165;SDS011;7162;52.422;13.754;2023-02-05T00:02:42;3.33;;;2.50;;
14165;SDS011;7162;52.422;13.754;2023-02-05T00:05:10;4.20;;;2.50;;
14165;SDS011;7162;52.422;13.754;2023-02-05T00:07:37;4.83;;;2.43;;
14165;SDS011;7162;52.422;13.754;2023-02-05T00:10:04;5.13;;;1.87;;
14165;SDS011;7162;52.422;13.754;2023-02-05T00:12:31;4.90;;;1.93;;
14165;SDS011;7162;52.422;13.754;2023-02-05T00:14:59;4.27;;;1.60;;
14165;SDS011;7162;52.422;13.754;2023-02-05T00:17:26;2.63;;;1.90;;
14165;SDS011;7162;52.422;13.754;2023-02-05T00:19:54;2.30;;;2.10;;
14165;SDS011;7162;52.422;13.754;2023-02-05T00:22:21;5.70;;;2.50;;
14165;SDS011;7162;52.422;13.754;2023-02-05T00:24:48;3.03;;;1.90;;
14165;SDS011;7162;52.422;13.754;2023-02-05T00:27:16;2.33;;;2.10;;
14165;SDS011;7162;52.422;13.754;2023-02-05T00:29:43;4.53;;;2.00;;
14165;SDS011;7162;52.422;13.754;2023-02-05T00:32:10;2.87;;;1.43;;
14165;SDS011;7162;52.422;13.754;2023-02-05T00:34:37;3.87;;;1.80;;
14165;SDS011;7162;52.422;13.754;2023-02-05T00:37:05;3.00;;;1.93;;
14165;SDS011;7162;52.422;13.754;2023-02-05T00:39:32;2.60;;;2.40;;
14165;SDS011;7162;52.422;13.754;2023-02-05T00:42:00;2.03;;;1.83;;
14165;SDS011;7162;52.422;13.754;2023-02-05T00:44:27;3.73;;;1.63;;
14165;SDS011;7162;52.422;13.754;2023-02-05T00:46:55;2.70;;;1.90;;
14165;SDS011;7162;52.422;13.754;2023-02-05T00:49:22;3.43;;;2.80;;
14165;SDS011;7162;52.422;13.754;2023-02-05T00:51:49;2.17;;;1.60;;
14165;SDS011;7162;52.422;13.754;2023-02-05T00:54:17;4.77;;;2.57;;
14165;SDS011;7162;52.422;13.754;2023-02-05T00:56:44;3.03;;;1.77;;
14165;SDS011;7162;52.422;13.754;2023-02-05T00:59:11;4.90;;;2.30;;
14165;SDS011;7162;52.422;13.754;2023-02-05T01:01:38;1.80;;;1.70;;
14165;SDS011;7162;52.422;13.754;2023-02-05T01:04:05;1.93;;;1.77;;
14165;SDS011;7162;52.422;13.754;2023-02-05T01:06:32;1.13;;;1.13;;
14165;SDS011;7162;52.422;13.754;2023-02-05T01:08:59;2.50;;;2.00;;
14165;SDS011;7162;52.422;13.754;2023-02-05T01:11:28;3.90;;;2.17;;
14165;SDS011;7162;52.422;13.754;2023-02-05T01:13:55;2.93;;;1.93;;
14165;SDS011;7162;52.422;13.754;2023-02-05T01:16:22;3.70;;;1.87;;
14165;SDS011;7162;52.422;13.754;2023-02-05T01:18:49;6.90;;;2.23;;
14165;SDS011;7162;52.422;13.754;2023-02-05T01:21:16;1.70;;;1.60;;
14165;SDS011;7162;52.422;13.754;2023-02-05T01:23:43;5.37;;;1.77;;
14165;SDS011;7162;52.422;13.754;2023-02-05T01:26:10;2.20;;;1.70;;
14165;SDS011;7162;52.422;13.754;2023-02-05T01:28:39;3.07;;;1.87;;
14165;SDS011;7162;52.422;13.754;2023-02-05T01:31:06;3.00;;;2.30;;
14165;SDS011;7162;52.422;13.754;2023-02-05T01:33:35;2.70;;;2.00;;
14165;SDS011;7162;52.422;13.754;2023-02-05T01:36:02;4.00;;;2.43;;
14165;SDS011;7162;52.422;13.754;2023-02-05T01:38:29;4.43;;;2.43;;
14165;SDS011;7162;52.422;13.754;2023-02-05T01:40:56;14.17;;;2.87;;
14165;SDS011;7162;52.422;13.754;2023-02-05T01:43:24;2.60;;;2.37;;
14165;SDS011;7162;52.422;13.754;2023-02-05T01:46:02;4.83;;;2.80;;
14165;SDS011;7162;52.422;13.754;2023-02-05T01:48:31;3.40;;;1.90;;
14165;SDS011;7162;52.422;13.754;2023-02-05T01:51:00;3.53;;;2.77;;
14165;SDS011;7162;52.422;13.754;2023-02-05T01:53:30;5.77;;;3.80;;
14165;SDS011;7162;52.422;13.754;2023-02-05T01:55:58;7.23;;;3.87;;
14165;SDS011;7162;52.422;13.754;2023-02-05T01:58:26;8.77;;;3.00;;
14165;SDS011;7162;52.422;13.754;2023-02-05T02:00:55;3.90;;;2.30;;
14165;SDS011;7162;52.422;13.754;2023-02-05T02:03:24;5.00;;;2.60;;
14165;SDS011;7162;52.422;13.754;2023-02-05T02:05:52;7.17;;;3.20;;
14165;SDS011;7162;52.422;13.754;2023-02-05T02:08:19;5.83;;;1.90;;
14165;SDS011;7162;52.422;13.754;2023-02-05T02:10:46;4.20;;;1.67;;
14165;SDS011;7162;52.422;13.754;2023-02-05T02:13:14;2.60;;;1.70;;
14165;SDS011;7162;52.422;13.754;2023-02-05T02:15:41;2.90;;;1.60;;
14165;SDS011;7162;52.422;13.754;2023-02-05T02:18:08;1.70;;;1.60;;
14165;SDS011;7162;52.422;13.754;2023-02-05T02:20:56;4.77;;;1.90;;
14165;SDS011;7162;52.422;13.754;2023-02-05T02:23:27;4.30;;;2.63;;
14165;SDS011;7162;52.422;13.754;2023-02-05T02:26:01;2.30;;;2.00;;
14165;SDS011;7162;52.422;13.754;2023-02-05T02:28:33;3.97;;;1.97;;
14165;SDS011;7162;52.422;13.754;2023-02-05T02:31:03;3.07;;;2.30;;
14165;SDS011;7162;52.422;13.754;2023-02-05T02:33:33;4.37;;;2.40;;
14165;SDS011;7162;52.422;13.754;2023-02-05T02:36:02;2.50;;;2.30;;
14165;SDS011;7162;52.422;13.754;2023-02-05T02:38:32;2.77;;;1.83;;
14165;SDS011;7162;52.422;13.754;2023-02-05T02:41:02;1.93;;;1.80;;
14165;SDS011;7162;52.422;13.754;2023-02-05T02:43:31;3.43;;;2.00;;
14165;SDS011;7162;52.422;13.754;2023-02-05T02:46:02;2.80;;;2.00;;
14165;SDS011;7162;52.422;13.754;2023-02-05T02:48:29;3.03;;;1.93;;
14165;SDS011;7162;52.422;13.754;2023-02-05T02:50:58;2.30;;;1.53;;
14165;SDS011;7162;52.422;13.754;2023-02-05T02:53:27;2.57;;;1.70;;
14165;SDS011;7162;52.422;13.754;2023-02-05T02:55:55;2.97;;;1.80;;
14165;SDS011;7162;52.422;13.754;2023-02-05T02:58:26;1.97;;;1.77;;
14165;SDS011;7162;52.422;13.754;2023-02-05T03:00:55;4.83;;;1.73;;
14165;SDS011;7162;52.422;13.754;2023-02-05T03:03:25;2.00;;;1.80;;
14165;SDS011;7162;52.422;13.754;2023-02-05T03:05:53;2.00;;;1.80;;
14165;SDS011;7162;52.422;13.754;2023-02-05T03:08:21;1.87;;;1.73;;
14165;SDS011;7162;52.422;13.754;2023-02-05T03:10:52;2.43;;;1.70;;
14165;SDS011;7162;52.422;13.754;2023-02-05T03:13:21;3.40;;;1.93;;
14165;SDS011;7162;52.422;13.754;2023-02-05T03:15:48;5.10;;;2.10;;
14165;SDS011;7162;52.422;13.754;2023-02-05T03:18:15;2.77;;;1.70;;
14165;SDS011;7162;52.422;13.754;2023-02-05T03:20:46;2.33;;;2.03;;
14165;SDS011;7162;52.422;13.754;2023-02-05T03:23:14;1.60;;;1.43;;
14165;SDS011;7162;52.422;13.754;2023-02-05T03:25:41;2.33;;;1.93;;
14165;SDS011;7162;52.422;13.754;2023-02-05T03:28:08;1.83;;;1.60;;
14165;SDS011;7162;52.422;13.754;2023-02-05T03:30:36;1.43;;;1.30;;
14165;SDS011;7162;52.422;13.754;2023-02-05T03:33:07;2.33;;;1.90;;
14165;SDS011;7162;52.422;13.754;2023-02-05T03:35:40;2.53;;;2.00;;
14165;SDS011;7162;52.422;13.754;2023-02-05T03:38:13;3.60;;;1.60;;
14165;SDS011;7162;52.422;13.754;2023-02-05T03:40:45;2.60;;;1.97;;
14165;SDS011;7162;52.422;13.754;2023-02-05T03:43:15;3.07;;;2.17;;
14165;SDS011;7162;52.422;13.754;2023-02-05T03:45:44;2.37;;;1.80;;
14165;SDS011;7162;52.422;13.754;2023-02-05T03:48:15;2.30;;;1.80;;
14165;SDS011;7162;52.422;13.754;2023-02-05T03:50:47;1.70;;;1.60;;
14165;SDS011;7162;52.422;13.754;2023-02-05T03:53:18;2.07;;;1.20;;
14165;SDS011;7162;52.422;13.754;2023-02-05T03:55:49;2.97;;;1.90;;
14165;SDS011;7162;52.422;13.754;2023-02-05T03:58:17;2.73;;;1.40;;
14165;SDS011;7162;52.422;13.754;2023-02-05T04:00:45;2.97;;;1.77;;
14165;SDS011;7162;52.422;13.754;2023-02-05T04:03:12;1.60;;;1.50;;
14165;SDS011;7162;52.422;13.754;2023-02-05T04:05:41;2.20;;;1.53;;
14165;SDS011;7162;52.422;13.754;2023-02-05T04:08:08;2.47;;;1.40;;
14165;SDS011;7162;52.422;13.754;2023-02-05T04:10:36;3.53;;;1.87;;
14165;SDS011;7162;52.422;13.754;2023-02-05T04:13:03;11.23;;;1.90;;
14165;SDS011;7162;52.422;13.754;2023-02-05T04:15:31;1.63;;;1.40;;
14165;SDS011;7162;52.422;13.754;2023-02-05T04:17:58;2.10;;;1.70;;
14165;SDS011;7162;52.422;13.754;2023-02-05T04:20:25;2.33;;;1.83;;
14165;SDS011;7162;52.422;13.754;2023-02-05T04:22:52;2.60;;;1.93;;
14165;SDS011;7162;52.422;13.754;2023-02-05T04:25:19;1.60;;;1.50;;
14165;SDS011;7162;52.422;13.754;2023-02-05T04:27:47;3.13;;;1.70;;
14165;SDS011;7162;52.422;13.754;2023-02-05T04:30:14;2.90;;;1.90;;
14165;SDS011;7162;52.422;13.754;2023-02-05T04:32:42;2.47;;;1.53;;
14165;SDS011;7162;52.422;13.754;2023-02-05T04:35:09;2.43;;;1.97;;
14165;SDS011;7162;52.422;13.754;2023-02-05T04:37:36;2.20;;;1.77;;
14165;SDS011;7162;52.422;13.754;2023-02-05T04:40:03;1.07;;;0.97;;
14165;SDS011;7162;52.422;13.754;2023-02-05T04:42:30;1.50;;;1.40;;
14165;SDS011;7162;52.422;13.754;2023-02-05T04:44:58;1.70;;;1.40;;
14165;SDS011;7162;52.422;13.754;2023-02-05T04:47:25;2.93;;;2.03;;
14165;SDS011;7162;52.422;13.754;2023-02-05T04:49:52;2.67;;;1.90;;
14165;SDS011;7162;52.422;13.754;2023-02-05T04:52:19;2.03;;;1.63;;
14165;SDS011;7162;52.422;13.754;2023-02-05T04:54:46;3.37;;;2.00;;
14165;SDS011;7162;52.422;13.754;2023-02-05T04:57:13;3.20;;;2.00;;
14165;SDS011;7162;52.422;13.754;2023-02-05T04:59:40;3.23;;;2.10;;
14165;SDS011;7162;52.422;13.754;2023-02-05T05:02:09;4.47;;;1.80;;
14165;SDS011;7162;52.422;13.754;2023-02-05T05:04:36;2.00;;;1.83;;
14165;SDS011;7162;52.422;13.754;2023-02-05T05:07:03;13.00;;;2.30;;
14165;SDS011;7162;52.422;13.754;2023-02-05T05:09:30;4.03;;;1.77;;
14165;SDS011;7162;52.422;13.754;2023-02-05T05:11:57;4.13;;;1.80;;
14165;SDS011;7162;52.422;13.754;2023-02-05T05:14:24;1.80;;;1.70;;
14165;SDS011;7162;52.422;13.754;2023-02-05T05:16:51;2.53;;;1.53;;
14165;SDS011;7162;52.422;13.754;2023-02-05T05:19:19;2.97;;;2.33;;
14165;SDS011;7162;52.422;13.754;2023-02-05T05:21:46;1.90;;;1.50;;
14165;SDS011;7162;52.422;13.754;2023-02-05T05:24:13;3.17;;;2.40;;
14165;SDS011;7162;52.422;13.754;2023-02-05T05:26:41;5.00;;;2.10;;
14165;SDS011;7162;52.422;13.754;2023-02-05T05:29:09;4.27;;;2.00;;
14165;SDS011;7162;52.422;13.754;2023-02-05T05:31:36;3.73;;;2.13;;
14165;SDS011;7162;52.422;13.754;2023-02-05T05:34:03;8.80;;;3.33;;
14165;SDS011;7162;52.422;13.754;2023-02-05T05:36:31;2.17;;;1.97;;
14165;SDS011;7162;52.422;13.754;2023-02-05T05:38:58;1.90;;;1.67;;
14165;SDS011;7162;52.422;13.754;2023-02-05T05:41:45;2.13;;;1.93;;
14165;SDS011;7162;52.422;13.754;2023-02-05T05:44:30;4.30;;;1.60;;
14165;SDS011;7162;52.422;13.754;2023-02-05T05:46:57;2.23;;;1.77;;
14165;SDS011;7162;52.422;13.754;2023-02-05T05:49:24;3.50;;;1.97;;
14165;SDS011;7162;52.422;13.754;2023-02-05T05:51:52;2.93;;;1.70;;
14165;SDS011;7162;52.422;13.754;2023-02-05T05:54:19;3.83;;;1.70;;
14165;SDS011;7162;52.422;13.754;2023-02-05T05:56:47;3.73;;;1.60;;
14165;SDS011;7162;52.422;13.754;2023-02-05T05:59:14;2.40;;;1.40;;
14165;SDS011;7162;52.422;13.754;2023-02-05T06:01:41;3.27;;;1.80;;
14165;SDS011;7162;52.422;13.754;2023-02-05T06:04:08;2.23;;;1.80;;
14165;SDS011;7162;52.422;13.754;2023-02-05T06:06:35;1.80;;;1.43;;
14165;SDS011;7162;52.422;13.754;2023-02-05T06:09:04;2.60;;;1.60;;
14165;SDS011;7162;52.422;13.754;2023-02-05T06:11:31;4.10;;;1.87;;
14165;SDS011;7162;52.422;13.754;2023-02-05T06:13:58;1.80;;;1.70;;
14165;SDS011;7162;52.422;13.754;2023-02-05T06:16:25;3.40;;;1.90;;
14165;SDS011;7162;52.422;13.754;2023-02-05T06:18:52;2.87;;;1.73;;
14165;SDS011;7162;52.422;13.754;2023-02-05T06:21:19;2.87;;;1.63;;
14165;SDS011;7162;52.422;13.754;2023-02-05T06:23:46;3.37;;;2.33;;
14165;SDS011;7162;52.422;13.754;2023-02-05T06:26:14;6.20;;;2.00;;
14165;SDS011;7162;52.422;13.754;2023-02-05T06:28:41;3.80;;;2.20;;
14165;SDS011;7162;52.422;13.754;2023-02-05T06:31:08;7.20;;;2.50;;
14165;SDS011;7162;52.422;13.754;2023-02-05T06:33:35;2.33;;;2.13;;
14165;SDS011;7162;52.422;13.754;2023-02-05T06:36:02;4.07;;;2.33;;
14165;SDS011;7162;52.422;13.754;2023-02-05T06:38:29;2.37;;;2.17;;
14165;SDS011;7162;52.422;13.754;2023-02-05T06:40:56;1.87;;;1.70;;
14165;SDS011;7162;52.422;13.754;2023-02-05T06:43:25;3.80;;;1.73;;
14165;SDS011;7162;52.422;13.754;2023-02-05T06:45:52;3.10;;;2.20;;
14165;SDS011;7162;52.422;13.754;2023-02-05T06:48:19;4.00;;;1.83;;
14165;SDS011;7162;52.422;13.754;2023-02-05T06:50:46;4.27;;;2.00;;
14165;SDS011;7162;52.422;13.754;2023-02-05T06:53:13;2.43;;;1.80;;
14165;SDS011;7162;52.422;13.754;2023-02-05T06:55:40;2.97;;;1.90;;
14165;SDS011;7162;52.422;13.754;2023-02-05T06:58:07;2.37;;;1.90;;
14165;SDS011;7162;52.422;13.754;2023-02-05T07:00:35;2.60;;;1.70;;
14165;SDS011;7162;52.422;13.754;2023-02-05T07:03:02;4.10;;;2.27;;
14165;SDS011;7162;52.422;13.754;2023-02-05T07:05:30;4.13;;;2.20;;
14165;SDS011;7162;52.422;13.754;2023-02-05T07:07:58;4.60;;;2.47;;
14165;SDS011;7162;52.422;13.754;2023-02-05T07:10:25;5.10;;;2.13;;
14165;SDS011;7162;52.422;13.754;2023-02-05T07:12:52;5.83;;;2.70;;
14165;SDS011;7162;52.422;13.754;2023-02-05T07:15:19;3.67;;;3.13;;
14165;SDS011;7162;52.422;13.754;2023-02-05T07:17:48;6.77;;;3.90;;
14165;SDS011;7162;52.422;13.754;2023-02-05T07:20:15;5.20;;;2.93;;
14165;SDS011;7162;52.422;13.754;2023-02-05T07:22:42;2.67;;;2.00;;
14165;SDS011;7162;52.422;13.754;2023-02-05T07:25:11;4.30;;;2.97;;
14165;SDS011;7162;52.422;13.754;2023-02-05T07:27:37;4.50;;;2.53;;
14165;SDS011;7162;52.422;13.754;2023-02-05T07:30:05;2.53;;;2.10;;
14165;SDS011;7162;52.422;13.754;2023-02-05T07:32:32;4.03;;;1.80;;
14165;SDS011;7162;52.422;13.754;2023-02-05T07:35:00;3.60;;;2.30;;
14165;SDS011;7162;52.422;13.754;2023-02-05T07:37:27;8.30;;;3.93;;
14165;SDS011;7162;52.422;13.754;2023-02-05T07:39:54;4.03;;;2.60;;
14165;SDS011;7162;52.422;13.754;2023-02-05T07:42:21;4.33;;;2.70;;
14165;SDS011;7162;52.422;13.754;2023-02-05T07:44:48;3.93;;;2.10;;
14165;SDS011;7162;52.422;13.754;2023-02-05T07:47:15;2.60;;;2.00;;
14165;SDS011;7162;52.422;13.754;2023-02-05T07:49:42;5.03;;;2.60;;
14165;SDS011;7162;52.422;13.754;2023-02-05T07:52:10;4.57;;;2.33;;
14165;SDS011;7162;52.422;13.754;2023-02-05T07:54:38;5.17;;;2.10;;
14165;SDS011;7162;52.422;13.754;2023-02-05T07:57:11;3.43;;;1.57;;
14165;SDS011;7162;52.422;13.754;2023-02-05T07:59:38;2.27;;;1.90;;
14165;SDS011;7162;52.422;13.754;2023-02-05T08:02:05;3.97;;;2.60;;
14165;SDS011;7162;52.422;13.754;2023-02-05T08:04:32;4.40;;;2.10;;
14165;SDS011;7162;52.422;13.754;2023-02-05T08:06:59;2.10;;;1.80;;
14165;SDS011;7162;52.422;13.754;2023-02-05T08:09:27;6.20;;;2.40;;
14165;SDS011;7162;52.422;13.754;2023-02-05T08:11:54;3.40;;;1.40;;
14165;SDS011;7162;52.422;13.754;2023-02-05T08:14:21;8.60;;;4.60;;
14165;SDS011;7162;52.422;13.754;2023-02-05T08:16:48;6.50;;;3.30;;
14165;SDS011;7162;52.422;13.754;2023-02-05T08:19:15;33.67;;;3.10;;
14165;SDS011;7162;52.422;13.754;2023-02-05T08:21:43;1.87;;;1.70;;
14165;SDS011;7162;52.422;13.754;2023-02-05T08:24:10;2.10;;;1.90;;
14165;SDS011;7162;52.422;13.754;2023-02-05T08:26:38;1.43;;;1.30;;
14165;SDS011;7162;52.422;13.754;2023-02-05T08:29:05;3.27;;;2.30;;
14165;SDS011;7162;52.422;13.754;2023-02-05T08:31:33;2.40;;;2.17;;
14165;SDS011;7162;52.422;13.754;2023-02-05T08:34:00;4.97;;;2.20;;
14165;SDS011;7162;52.422;13.754;2023-02-05T08:36:27;2.53;;;1.80;;
14165;SDS011;7162;52.422;13.754;2023-02-05T08:38:54;3.60;;;1.90;;
14165;SDS011;7162;52.422;13.754;2023-02-05T08:41:21;7.30;;;2.67;;
14165;SDS011;7162;52.422;13.754;2023-02-05T08:43:50;3.77;;;2.30;;
14165;SDS011;7162;52.422;13.754;2023-02-05T08:46:17;4.93;;;2.47;;
14165;SDS011;7162;52.422;13.754;2023-02-05T08:48:45;1.50;;;1.40;;
14165;SDS011;7162;52.422;13.754;2023-02-05T08:51:13;2.13;;;1.77;;
14165;SDS011;7162;52.422;13.754;2023-02-05T08:53:40;2.30;;;1.93;;
14165;SDS011;7162;52.422;13.754;2023-02-05T08:56:08;2.20;;;1.63;;
14165;SDS011;7162;52.422;13.754;2023-02-05T08:58:36;3.47;;;1.50;;
14165;SDS011;7162;52.422;13.754;2023-02-05T09:01:06;2.57;;;1.53;;
14165;SDS011;7162;52.422;13.754;2023-02-05T09:03:33;1.63;;;1.53;;
14165;SDS011;7162;52.422;13.754;2023-02-05T09:06:02;2.20;;;1.60;;
14165;SDS011;7162;52.422;13.754;2023-02-05T09:08:30;1.80;;;1.30;;
14165;SDS011;7162;52.422;13.754;2023-02-05T09:10:57;4.40;;;1.63;;
14165;SDS011;7162;52.422;13.754;2023-02-05T09:13:24;1.83;;;1.50;;
14165;SDS011;7162;52.422;13.754;2023-02-05T09:15:52;2.70;;;1.80;;
14165;SDS011;7162;52.422;13.754;2023-02-05T09:18:21;2.93;;;1.57;;
14165;SDS011;7162;52.422;13.754;2023-02-05T09:20:48;2.70;;;1.40;;
14165;SDS011;7162;52.422;13.754;2023-02-05T09:23:18;1.40;;;1.30;;
14165;SDS011;7162;52.422;13.754;2023-02-05T09:25:45;1.50;;;1.40;;
14165;SDS011;7162;52.422;13.754;2023-02-05T09:28:14;2.20;;;1.50;;
14165;SDS011;7162;52.422;13.754;2023-02-05T09:30:42;5.33;;;2.13;;
14165;SDS011;7162;52.422;13.754;2023-02-05T09:33:10;10.60;;;3.87;;
14165;SDS011;7162;52.422;13.754;2023-02-05T09:35:38;2.10;;;1.90;;
14165;SDS011;7162;52.422;13.754;2023-02-05T09:38:06;4.70;;;1.97;;
14165;SDS011;7162;52.422;13.754;2023-02-05T09:40:34;2.07;;;1.10;;
14165;SDS011;7162;52.422;13.754;2023-02-05T09:43:02;2.97;;;1.10;;
14165;SDS011;7162;52.422;13.754;2023-02-05T09:45:33;7.50;;;2.27;;
14165;SDS011;7162;52.422;13.754;2023-02-05T09:48:04;3.10;;;1.47;;
14165;SDS011;7162;52.422;13.754;2023-02-05T09:50:34;1.67;;;1.20;;
14165;SDS011;7162;52.422;13.754;2023-02-05T09:53:08;1.63;;;1.07;;
14165;SDS011;7162;52.422;13.754;2023-02-05T09:55:38;3.00;;;2.00;;
14165;SDS011;7162;52.422;13.754;2023-02-05T09:58:12;19.97;;;1.27;;
14165;SDS011;7162;52.422;13.754;2023-02-05T10:00:48;4.00;;;1.47;;
14165;SDS011;7162;52.422;13.754;2023-02-05T10:03:18;1.30;;;1.20;;
14165;SDS011;7162;52.422;13.754;2023-02-05T10:05:52;1.30;;;1.20;;
14165;SDS011;7162;52.422;13.754;2023-02-05T10:08:35;2.57;;;1.50;;
14165;SDS011;7162;52.422;13.754;2023-02-05T10:11:08;1.40;;;1.17;;
14165;SDS011;7162;52.422;13.754;2023-02-05T10:13:39;2.33;;;1.30;;
14165;SDS011;7162;52.422;13.754;2023-02-05T10:16:19;1.40;;;1.00;;
14165;SDS011;7162;52.422;13.754;2023-02-05T10:18:53;2.47;;;1.00;;
14165;SDS011;7162;52.422;13.754;2023-02-05T10:21:29;1.23;;;0.90;;
14165;SDS011;7162;52.422;13.754;2023-02-05T10:24:09;12.63;;;1.40;;
14165;SDS011;7162;52.422;13.754;2023-02-05T10:26:39;2.50;;;1.40;;
14165;SDS011;7162;52.422;13.754;2023-02-05T10:29:11;2.50;;;1.27;;
14165;SDS011;7162;52.422;13.754;2023-02-05T10:31:43;5.83;;;0.90;;
14165;SDS011;7162;52.422;13.754;2023-02-05T10:34:16;3.93;;;1.10;;
14165;SDS011;7162;52.422;13.754;2023-02-05T10:36:45;3.70;;;1.20;;
14165;SDS011;7162;52.422;13.754;2023-02-05T10:39:16;3.20;;;1.33;;
14165;SDS011;7162;52.422;13.754;2023-02-05T10:41:45;2.90;;;1.80;;
14165;SDS011;7162;52.422;13.754;2023-02-05T10:44:15;3.07;;;2.00;;
14165;SDS011;7162;52.422;13.754;2023-02-05T10:46:43;4.53;;;1.80;;
14165;SDS011;7162;52.422;13.754;2023-02-05T10:49:17;5.43;;;1.70;;
14165;SDS011;7162;52.422;13.754;2023-02-05T10:51:45;5.93;;;3.00;;
14165;SDS011;7162;52.422;13.754;2023-02-05T10:54:14;2.53;;;1.90;;
14165;SDS011;7162;52.422;13.754;2023-02-05T10:56:44;2.90;;;1.80;;
14165;SDS011;7162;52.422;13.754;2023-02-05T10:59:20;3.33;;;1.47;;
14165;SDS011;7162;52.422;13.754;2023-02-05T11:01:48;2.33;;;1.30;;
14165;SDS011;7162;52.422;13.754;2023-02-05T11:04:16;2.83;;;1.00;;
14165;SDS011;7162;52.422;13.754;2023-02-05T11:06:46;2.40;;;1.40;;
14165;SDS011;7162;52.422;13.754;2023-02-05T11:12:00;1.10;;;1.00;;
14165;SDS011;7162;52.422;13.754;2023-02-05T11:14:29;2.90;;;1.03;;
14165;SDS011;7162;52.422;13.754;2023-02-05T11:16:57;0.80;;;0.80;;
14165;SDS011;7162;52.422;13.754;2023-02-05T11:19:27;0.83;;;0.83;;
14165;SDS011;7162;52.422;13.754;2023-02-05T11:21:55;1.40;;;1.30;;
14165;SDS011;7162;52.422;13.754;2023-02-05T11:24:25;1.23;;;0.90;;
14165;SDS011;7162;52.422;13.754;2023-02-05T11:29:46;1.20;;;1.10;;
14165;SDS011;7162;52.422;13.754;2023-02-05T11:32:19;2.10;;;1.37;;
14165;SDS011;7162;52.422;13.754;2023-02-05T11:34:46;8.23;;;1.40;;
14165;SDS011;7162;52.422;13.754;2023-02-05T11:37:19;20.00;;;1.77;;
14165;SDS011;7162;52.422;13.754;2023-02-05T11:39:46;1.70;;;1.10;;
14165;SDS011;7162;52.422;13.754;2023-02-05T11:42:22;8.70;;;2.20;;
14165;SDS011;7162;52.422;13.754;2023-02-05T11:44:54;1.43;;;1.13;;
14165;SDS011;7162;52.422;13.754;2023-02-05T11:47:25;0.97;;;0.97;;
14165;SDS011;7162;52.422;13.754;2023-02-05T11:49:53;1.67;;;1.13;;
14165;SDS011;7162;52.422;13.754;2023-02-05T11:52:25;1.50;;;1.40;;
14165;SDS011;7162;52.422;13.754;2023-02-05T11:54:55;3.07;;;1.93;;
14165;SDS011;7162;52.422;13.754;2023-02-05T11:57:29;1.73;;;1.10;;
14165;SDS011;7162;52.422;13.754;2023-02-05T11:59:58;1.40;;;0.80;;
14165;SDS011;7162;52.422;13.754;2023-02-05T12:02:33;1.93;;;0.90;;
14165;SDS011;7162;52.422;13.754;2023-02-05T12:05:03;1.20;;;1.10;;
14165;SDS011;7162;52.422;13.754;2023-02-05T12:07:34;3.90;;;1.17;;
14165;SDS011;7162;52.422;13.754;2023-02-05T12:10:03;1.77;;;0.80;;
14165;SDS011;7162;52.422;13.754;2023-02-05T12:12:37;2.70;;;0.93;;
14165;SDS011;7162;52.422;13.754;2023-02-05T12:15:13;3.30;;;1.17;;
14165;SDS011;7162;52.422;13.754;2023-02-05T12:17:47;2.77;;;1.07;;
14165;SDS011;7162;52.422;13.754;2023-02-05T12:20:18;1.00;;;1.00;;
14165;SDS011;7162;52.422;13.754;2023-02-05T12:22:55;0.93;;;0.93;;
14165;SDS011;7162;52.422;13.754;2023-02-05T12:25:26;3.30;;;1.03;;
14165;SDS011;7162;52.422;13.754;2023-02-05T12:28:02;1.33;;;1.23;;
14165;SDS011;7162;52.422;13.754;2023-02-05T12:30:35;4.60;;;1.20;;
14165;SDS011;7162;52.422;13.754;2023-02-05T12:33:12;3.03;;;1.77;;
14165;SDS011;7162;52.422;13.754;2023-02-05T12:35:47;1.30;;;1.20;;
14165;SDS011;7162;52.422;13.754;2023-02-05T12:38:19;1.20;;;1.10;;
14165;SDS011;7162;52.422;13.754;2023-02-05T12:40:50;1.00;;;0.90;;
14165;SDS011;7162;52.422;13.754;2023-02-05T12:43:26;2.93;;;1.00;;
14165;SDS011;7162;52.422;13.754;2023-02-05T12:45:57;1.83;;;1.10;;
14165;SDS011;7162;52.422;13.754;2023-02-05T12:48:31;2.53;;;1.17;;
14165;SDS011;7162;52.422;13.754;2023-02-05T12:51:07;2.00;;;0.80;;
14165;SDS011;7162;52.422;13.754;2023-02-05T12:53:42;1.30;;;1.20;;
14165;SDS011;7162;52.422;13.754;2023-02-05T12:56:26;0.97;;;0.90;;
14165;SDS011;7162;52.422;13.754;2023-02-05T12:58:55;1.20;;;1.10;;
14165;SDS011;7162;52.422;13.754;2023-02-05T13:01:26;3.73;;;1.63;;
14165;SDS011;7162;52.422;13.754;2023-02-05T13:03:58;1.83;;;1.50;;
14165;SDS011;7162;52.422;13.754;2023-02-05T13:06:27;6.03;;;3.10;;
14165;SDS011;7162;52.422;13.754;2023-02-05T13:09:00;2.87;;;1.30;;
14165;SDS011;7162;52.422;13.754;2023-02-05T13:11:29;1.37;;;1.07;;
14165;SDS011;7162;52.422;13.754;2023-02-05T13:14:00;0.87;;;0.80;;
14165;SDS011;7162;52.422;13.754;2023-02-05T13:16:30;4.33;;;1.27;;
14165;SDS011;7162;52.422;13.754;2023-02-05T13:19:02;1.27;;;1.07;;
14165;SDS011;7162;52.422;13.754;2023-02-05T13:21:32;1.73;;;1.10;;
14165;SDS011;7162;52.422;13.754;2023-02-05T13:24:20;1.67;;;1.00;;
14165;SDS011;7162;52.422;13.754;2023-02-05T13:27:13;3.37;;;1.33;;
14165;SDS011;7162;52.422;13.754;2023-02-05T13:29:59;1.13;;;1.00;;
14165;SDS011;7162;52.422;13.754;2023-02-05T13:32:29;2.20;;;1.53;;
14165;SDS011;7162;52.422;13.754;2023-02-05T13:34:58;1.90;;;0.80;;
14165;SDS011;7162;52.422;13.754;2023-02-05T13:37:31;2.33;;;1.13;;
14165;SDS011;7162;52.422;13.754;2023-02-05T13:40:09;5.50;;;1.13;;
14165;SDS011;7162;52.422;13.754;2023-02-05T13:42:46;7.70;;;1.70;;
14165;SDS011;7162;52.422;13.754;2023-02-05T13:45:25;1.63;;;0.97;;
14165;SDS011;7162;52.422;13.754;2023-02-05T13:48:03;1.20;;;0.80;;
14165;SDS011;7162;52.422;13.754;2023-02-05T13:50:48;3.87;;;1.73;;
14165;SDS011;7162;52.422;13.754;2023-02-05T13:53:30;1.13;;;1.00;;
14165;SDS011;7162;52.422;13.754;2023-02-05T13:56:08;1.70;;;1.20;;
14165;SDS011;7162;52.422;13.754;2023-02-05T13:58:41;1.00;;;0.80;;
14165;SDS011;7162;52.422;13.754;2023-02-05T14:01:14;1.37;;;0.90;;
14165;SDS011;7162;52.422;13.754;2023-02-05T14:03:53;2.40;;;0.90;;
14165;SDS011;7162;52.422;13.754;2023-02-05T14:06:22;9.30;;;1.00;;
14165;SDS011;7162;52.422;13.754;2023-02-05T14:08:50;0.70;;;0.70;;
14165;SDS011;7162;52.422;13.754;2023-02-05T14:11:20;1.33;;;0.90;;
14165;SDS011;7162;52.422;13.754;2023-02-05T14:16:37;1.00;;;0.90;;
14165;SDS011;7162;52.422;13.754;2023-02-05T14:19:13;2.77;;;1.00;;
14165;SDS011;7162;52.422;13.754;2023-02-05T14:21:48;1.00;;;0.90;;
14165;SDS011;7162;52.422;13.754;2023-02-05T14:24:24;0.80;;;0.80;;
14165;SDS011;7162;52.422;13.754;2023-02-05T14:26:52;1.83;;;1.30;;
14165;SDS011;7162;52.422;13.754;2023-02-05T14:29:37;1.50;;;0.97;;
14165;SDS011;7162;52.422;13.754;2023-02-05T14:32:05;0.80;;;0.80;;
14165;SDS011;7162;52.422;13.754;2023-02-05T14:37:27;3.20;;;1.70;;
14165;SDS011;7162;52.422;13.754;2023-02-05T14:39:55;3.17;;;1.43;;
14165;SDS011;7162;52.422;13.754;2023-02-05T14:42:23;1.07;;;0.97;;
14165;SDS011;7162;52.422;13.754;2023-02-05T14:44:53;1.07;;;1.00;;
14165;SDS011;7162;52.422;13.754;2023-02-05T14:47:23;1.10;;;1.03;;
14165;SDS011;7162;52.422;13.754;2023-02-05T14:49:57;1.77;;;0.83;;
14165;SDS011;7162;52.422;13.754;2023-02-05T14:52:26;2.63;;;0.93;;
14165;SDS011;7162;52.422;13.754;2023-02-05T14:54:56;1.40;;;1.00;;
14165;SDS011;7162;52.422;13.754;2023-02-05T14:57:29;11.33;;;1.30;;
14165;SDS011;7162;52.422;13.754;2023-02-05T14:59:58;1.30;;;0.80;;
14165;SDS011;7162;52.422;13.754;2023-02-05T15:02:47;2.40;;;0.80;;
14165;SDS011;7162;52.422;13.754;2023-02-05T15:05:21;0.83;;;0.80;;
14165;SDS011;7162;52.422;13.754;2023-02-05T15:07:58;0.83;;;0.83;;
14165;SDS011;7162;52.422;13.754;2023-02-05T15:10:28;1.37;;;1.27;;
14165;SDS011;7162;52.422;13.754;2023-02-05T15:13:00;8.43;;;1.30;;